createdAt,value
2018-05-27T00:01:35.012Z,9.48
2018-05-27T00:04:02.539Z,9.13
2018-05-27T00:06:30.062Z,8.65
2018-05-27T00:08:57.599Z,8.50
2018-05-27T00:11:25.173Z,8.75
2018-05-27T00:13:52.702Z,8.85
2018-05-27T00:16:20.261Z,8.82
2018-05-27T00:18:47.785Z,8.75
2018-05-27T00:21:15.295Z,7.95
2018-05-27T00:23:43.271Z,9.05
2018-05-27T00:26:10.794Z,9.10
2018-05-27T00:28:39.104Z,9.38
2018-05-27T00:31:06.682Z,9.20
2018-05-27T00:33:34.218Z,9.60
2018-05-27T00:36:01.737Z,9.48
2018-05-27T00:38:29.305Z,8.30
2018-05-27T00:40:56.809Z,8.88
2018-05-27T00:43:25.293Z,8.10
2018-05-27T00:45:53.699Z,8.38
2018-05-27T00:48:21.212Z,7.95
2018-05-27T00:50:48.741Z,8.43
2018-05-27T00:53:16.293Z,10.05
2018-05-27T00:55:43.818Z,9.63
2018-05-27T00:58:12.108Z,9.82
2018-05-27T01:00:40.410Z,9.85
2018-05-27T01:03:07.930Z,10.55
2018-05-27T01:05:35.456Z,12.02
2018-05-27T01:08:02.994Z,12.00
2018-05-27T01:10:30.525Z,10.77
2018-05-27T01:12:58.133Z,10.77
2018-05-27T01:15:25.715Z,11.48
2018-05-27T01:17:53.998Z,9.80
2018-05-27T01:20:21.523Z,9.57
2018-05-27T01:22:49.938Z,9.90
2018-05-27T01:25:17.461Z,8.55
2018-05-27T01:27:45.785Z,9.93
2018-05-27T01:30:14.103Z,9.77
2018-05-27T01:32:41.622Z,9.75
2018-05-27T01:35:09.142Z,9.05
2018-05-27T01:37:37.450Z,9.15
2018-05-27T01:40:05.755Z,8.38
2018-05-27T01:42:33.275Z,9.38
2018-05-27T01:45:00.879Z,8.75
2018-05-27T01:47:28.434Z,8.82
2018-05-27T01:49:55.949Z,9.13
2018-05-27T01:52:23.489Z,8.65
2018-05-27T01:54:51.774Z,10.05
2018-05-27T01:57:19.294Z,8.55
2018-05-27T01:59:47.605Z,8.65
2018-05-27T02:02:15.118Z,9.00
2018-05-27T02:04:42.659Z,9.00
2018-05-27T02:07:10.210Z,8.85
2018-05-27T02:09:37.724Z,9.18
2018-05-27T02:12:06.041Z,9.52
2018-05-27T02:14:33.578Z,9.27
2018-05-27T02:17:01.861Z,9.90
2018-05-27T02:19:30.141Z,9.80
2018-05-27T02:21:58.457Z,11.45
2018-05-27T02:24:26.621Z,9.90
2018-05-27T02:26:54.141Z,9.73
2018-05-27T02:29:21.677Z,10.85
2018-05-27T02:31:49.197Z,9.77
2018-05-27T02:34:17.487Z,9.90
2018-05-27T02:36:45.044Z,10.35
2018-05-27T02:39:13.319Z,9.90
2018-05-27T02:41:41.619Z,10.90
2018-05-27T02:44:09.943Z,9.55
2018-05-27T02:46:37.591Z,10.65
2018-05-27T02:49:05.115Z,10.80
2018-05-27T02:51:33.427Z,9.85
2018-05-27T02:54:00.945Z,9.95
2018-05-27T02:56:28.470Z,10.82
2018-05-27T02:58:56.022Z,9.88
2018-05-27T03:01:23.542Z,10.63
2018-05-27T03:03:51.053Z,11.02
2018-05-27T03:06:18.602Z,10.63
2018-05-27T03:08:46.889Z,11.00
2018-05-27T03:11:14.402Z,11.30
2018-05-27T03:13:43.450Z,11.68
2018-05-27T03:16:11.025Z,10.75
2018-05-27T03:18:38.587Z,10.57
2018-05-27T03:21:06.151Z,11.00
2018-05-27T03:23:33.679Z,10.93
2018-05-27T03:26:01.961Z,10.18
2018-05-27T03:28:30.262Z,9.50
2018-05-27T03:30:57.775Z,9.68
2018-05-27T03:33:25.309Z,10.75
2018-05-27T03:35:52.866Z,11.10
2018-05-27T03:38:20.389Z,11.05
2018-05-27T03:40:47.918Z,10.90
2018-05-27T03:43:15.460Z,11.52
2018-05-27T03:45:42.977Z,10.52
2018-05-27T03:48:10.541Z,11.57
2018-05-27T03:50:38.849Z,11.27
2018-05-27T03:53:07.125Z,10.07
2018-05-27T03:55:35.416Z,11.77
2018-05-27T03:58:02.960Z,11.57
2018-05-27T04:00:30.483Z,11.27
2018-05-27T04:02:58.005Z,10.70
2018-05-27T04:05:38.154Z,10.65
2018-05-27T04:08:17.433Z,10.45
2018-05-27T04:10:44.978Z,10.25
2018-05-27T04:13:12.485Z,9.80
2018-05-27T04:15:41.527Z,10.27
2018-05-27T04:18:09.087Z,11.05
2018-05-27T04:20:37.363Z,9.77
2018-05-27T04:23:04.937Z,10.32
2018-05-27T04:25:32.478Z,9.80
2018-05-27T04:28:00.774Z,10.18
2018-05-27T04:30:29.073Z,10.35
2018-05-27T04:32:56.656Z,11.48
2018-05-27T04:35:24.198Z,10.80
2018-05-27T04:37:51.706Z,10.30
2018-05-27T04:40:20.007Z,10.77
2018-05-27T04:42:48.341Z,10.45
2018-05-27T04:45:15.861Z,11.27
2018-05-27T04:47:44.182Z,11.15
2018-05-27T04:50:11.803Z,11.15
2018-05-27T04:52:40.091Z,11.93
2018-05-27T04:55:08.411Z,12.63
2018-05-27T04:57:35.937Z,11.98
2018-05-27T05:00:04.246Z,12.60
2018-05-27T05:02:31.804Z,12.60
2018-05-27T05:04:59.329Z,11.15
2018-05-27T05:07:27.649Z,13.13
2018-05-27T05:09:55.195Z,12.05
2018-05-27T05:12:23.801Z,12.23
2018-05-27T05:14:51.323Z,12.45
2018-05-27T05:17:18.869Z,12.00
2018-05-27T05:19:46.392Z,11.68
2018-05-27T05:22:13.959Z,10.73
2018-05-27T05:24:42.262Z,11.73
2018-05-27T05:27:09.796Z,11.30
2018-05-27T05:29:38.077Z,11.40
2018-05-27T05:32:05.659Z,11.63
2018-05-27T05:34:33.177Z,10.98
2018-05-27T05:37:00.709Z,10.73
2018-05-27T05:39:28.396Z,12.35
2018-05-27T05:41:55.925Z,10.77
2018-05-27T05:44:23.455Z,10.55
2018-05-27T05:46:51.016Z,10.73
2018-05-27T05:49:19.376Z,10.60
2018-05-27T05:51:46.926Z,9.98
2018-05-27T05:54:14.474Z,9.70
2018-05-27T05:56:42.757Z,9.55
2018-05-27T05:59:10.267Z,10.77
2018-05-27T06:01:37.809Z,10.20
2018-05-27T06:04:05.325Z,9.57
2018-05-27T06:06:32.825Z,9.38
2018-05-27T06:09:00.370Z,9.65
2018-05-27T06:11:27.933Z,9.18
2018-05-27T06:13:55.457Z,9.50
2018-05-27T06:16:22.994Z,8.70
2018-05-27T06:18:50.509Z,9.30
2018-05-27T06:21:18.037Z,9.35
2018-05-27T06:23:45.566Z,8.90
2018-05-27T06:26:13.086Z,8.40
2018-05-27T06:28:41.434Z,9.63
2018-05-27T06:31:08.961Z,7.87
2018-05-27T06:33:36.473Z,9.45
2018-05-27T06:36:03.977Z,7.80
2018-05-27T06:38:31.516Z,8.00
2018-05-27T06:40:59.137Z,7.47
2018-05-27T06:43:26.646Z,8.13
2018-05-27T06:45:54.953Z,7.75
2018-05-27T06:48:22.469Z,8.60
2018-05-27T06:50:49.977Z,7.93
2018-05-27T06:53:18.325Z,7.18
2018-05-27T06:55:45.843Z,7.95
2018-05-27T06:58:13.345Z,7.78
2018-05-27T07:00:40.889Z,6.95
2018-05-27T07:03:08.404Z,6.62
2018-05-27T07:05:36.681Z,6.43
2018-05-27T07:08:05.005Z,6.45
2018-05-27T07:10:32.524Z,6.28
2018-05-27T07:13:00.825Z,6.47
2018-05-27T07:15:28.394Z,6.10
2018-05-27T07:17:55.958Z,6.68
2018-05-27T07:20:23.518Z,5.53
2018-05-27T07:22:51.098Z,4.80
2018-05-27T07:25:18.621Z,5.75
2018-05-27T07:27:46.174Z,6.05
2018-05-27T07:30:13.710Z,5.30
2018-05-27T07:32:41.265Z,6.90
2018-05-27T07:35:09.542Z,5.10
2018-05-27T07:37:37.098Z,4.78
2018-05-27T07:40:04.608Z,4.30
2018-05-27T07:42:32.114Z,5.35
2018-05-27T07:44:59.688Z,3.95
2018-05-27T07:47:27.977Z,4.53
2018-05-27T07:49:55.540Z,4.68
2018-05-27T07:52:23.098Z,4.53
2018-05-27T07:54:50.811Z,5.78
2018-05-27T07:57:19.083Z,4.22
2018-05-27T07:59:46.654Z,4.70
2018-05-27T08:02:14.166Z,3.65
2018-05-27T08:04:41.682Z,3.87
2018-05-27T08:07:09.267Z,4.47
2018-05-27T08:09:36.772Z,4.40
2018-05-27T08:12:04.303Z,4.60
2018-05-27T08:14:32.611Z,3.28
2018-05-27T08:17:00.137Z,4.18
2018-05-27T08:19:27.649Z,3.65
2018-05-27T08:21:55.188Z,4.55
2018-05-27T08:24:22.713Z,4.62
2018-05-27T08:26:50.225Z,3.67
2018-05-27T08:29:17.786Z,5.78
2018-05-27T08:31:46.091Z,3.92
2018-05-27T08:34:13.610Z,3.97
2018-05-27T08:36:41.205Z,3.87
2018-05-27T08:39:08.698Z,3.85
2018-05-27T08:41:36.236Z,3.97
2018-05-27T08:44:03.782Z,4.20
2018-05-27T08:46:32.060Z,3.37
2018-05-27T08:49:00.402Z,3.15
2018-05-27T08:51:27.930Z,3.87
2018-05-27T08:53:55.453Z,2.80
2018-05-27T08:56:23.115Z,4.50
2018-05-27T08:58:50.668Z,3.22
2018-05-27T09:01:18.241Z,4.35
2018-05-27T09:03:45.727Z,3.25
2018-05-27T09:06:14.034Z,3.83
2018-05-27T09:08:41.558Z,3.55
2018-05-27T09:11:09.100Z,3.92
2018-05-27T09:13:36.635Z,3.83
2018-05-27T09:16:04.145Z,4.07
2018-05-27T09:18:31.659Z,4.10
2018-05-27T09:20:59.209Z,4.12
2018-05-27T09:23:27.492Z,4.57
2018-05-27T09:25:55.018Z,4.60
2018-05-27T09:28:22.580Z,5.30
2018-05-27T09:30:50.139Z,4.30
2018-05-27T09:33:17.660Z,4.15
2018-05-27T09:35:45.218Z,5.05
2018-05-27T09:38:12.740Z,3.97
2018-05-27T09:40:40.253Z,4.50
2018-05-27T09:43:07.813Z,4.47
2018-05-27T09:45:35.369Z,3.83
2018-05-27T09:48:02.885Z,4.15
2018-05-27T09:50:30.430Z,3.87
2018-05-27T09:52:57.953Z,3.17
2018-05-27T09:55:26.237Z,3.97
2018-05-27T09:57:54.059Z,4.30
2018-05-27T10:00:21.541Z,3.37
2018-05-27T10:02:49.050Z,4.95
2018-05-27T10:05:16.625Z,3.78
2018-05-27T10:07:44.179Z,3.90
2018-05-27T10:10:11.694Z,3.10
2018-05-27T10:12:39.241Z,2.95
2018-05-27T10:15:06.777Z,6.32
2018-05-27T10:17:35.064Z,3.00
2018-05-27T10:20:02.592Z,3.08
2018-05-27T10:22:30.866Z,3.10
2018-05-27T10:24:58.377Z,1.77
2018-05-27T10:27:25.911Z,2.25
2018-05-27T10:29:54.206Z,2.12
2018-05-27T10:32:21.720Z,2.12
2018-05-27T10:34:49.255Z,2.50
2018-05-27T10:37:17.555Z,2.20
2018-05-27T10:39:45.856Z,1.80
2018-05-27T10:42:13.410Z,2.25
2018-05-27T10:44:40.934Z,2.50
2018-05-27T10:47:08.599Z,2.37
2018-05-27T10:49:36.150Z,2.53
2018-05-27T10:52:03.658Z,2.30
2018-05-27T10:54:31.165Z,2.50
2018-05-27T10:56:59.457Z,2.08
2018-05-27T10:59:27.805Z,4.12
2018-05-27T11:01:56.522Z,2.47
2018-05-27T11:04:24.852Z,3.00
2018-05-27T11:06:52.377Z,7.65
2018-05-27T11:09:19.937Z,6.28
2018-05-27T11:11:48.249Z,1.80
2018-05-27T11:14:15.814Z,2.28
2018-05-27T11:16:43.372Z,1.90
2018-05-27T11:19:11.646Z,1.90
2018-05-27T11:21:39.162Z,2.47
2018-05-27T11:24:06.698Z,2.30
2018-05-27T11:26:34.247Z,2.58
2018-05-27T11:29:01.810Z,2.20
2018-05-27T11:31:29.321Z,2.40
2018-05-27T11:33:58.361Z,2.55
2018-05-27T11:36:25.875Z,2.00
2018-05-27T11:38:53.386Z,2.20
2018-05-27T11:41:20.942Z,2.15
2018-05-27T11:43:49.218Z,1.90
2018-05-27T11:46:17.520Z,1.62
2018-05-27T11:48:45.055Z,1.85
2018-05-27T11:51:13.330Z,3.92
2018-05-27T11:53:40.845Z,1.50
2018-05-27T11:56:08.380Z,1.60
2018-05-27T11:58:36.652Z,1.77
2018-05-27T12:01:05.019Z,1.60
2018-05-27T12:03:32.570Z,1.60
2018-05-27T12:06:00.103Z,1.37
2018-05-27T12:08:27.622Z,2.00
2018-05-27T12:10:55.954Z,2.65
2018-05-27T12:13:23.469Z,1.67
2018-05-27T12:15:51.747Z,3.92
2018-05-27T12:18:20.061Z,1.95
2018-05-27T12:20:48.409Z,1.80
2018-05-27T12:23:15.937Z,1.40
2018-05-27T12:25:43.480Z,1.30
2018-05-27T12:28:11.049Z,1.87
2018-05-27T12:30:38.572Z,1.60
2018-05-27T12:33:06.988Z,2.00
2018-05-27T12:35:34.550Z,1.50
2018-05-27T12:38:02.068Z,1.40
2018-05-27T12:40:29.618Z,1.50
2018-05-27T12:42:57.143Z,1.73
2018-05-27T12:45:24.673Z,1.90
2018-05-27T12:47:52.984Z,1.48
2018-05-27T12:50:20.501Z,1.67
2018-05-27T12:52:48.792Z,2.12
2018-05-27T12:55:16.333Z,1.73
2018-05-27T12:57:43.845Z,2.10
2018-05-27T13:00:12.136Z,2.03
2018-05-27T13:02:40.513Z,1.98
2018-05-27T13:05:08.036Z,1.73
2018-05-27T13:07:35.538Z,3.55
2018-05-27T13:10:03.874Z,2.55
2018-05-27T13:12:31.431Z,4.00
2018-05-27T13:14:58.958Z,2.97
2018-05-27T13:17:26.493Z,2.40
2018-05-27T13:19:54.091Z,2.30
2018-05-27T13:22:21.600Z,2.30
2018-05-27T13:24:49.132Z,2.42
2018-05-27T13:27:16.688Z,2.37
2018-05-27T13:29:44.199Z,2.72
2018-05-27T13:32:11.818Z,2.35
2018-05-27T13:34:39.338Z,2.92
2018-05-27T13:37:06.866Z,2.40
2018-05-27T13:39:34.409Z,2.30
2018-05-27T13:42:01.939Z,2.92
2018-05-27T13:44:29.539Z,2.87
2018-05-27T13:46:57.082Z,2.40
2018-05-27T13:49:25.370Z,2.60
2018-05-27T13:51:53.649Z,2.62
2018-05-27T13:54:21.958Z,2.30
2018-05-27T13:56:49.468Z,2.42
2018-05-27T13:59:17.758Z,2.17
2018-05-27T14:01:46.078Z,2.05
2018-05-27T14:04:13.739Z,2.53
2018-05-27T14:06:41.257Z,2.12
2018-05-27T14:09:08.825Z,4.03
2018-05-27T14:11:36.337Z,2.08
2018-05-27T14:14:03.865Z,2.25
2018-05-27T14:16:31.445Z,2.30
2018-05-27T14:18:59.728Z,2.97
2018-05-27T14:21:28.003Z,2.25
2018-05-27T14:23:56.315Z,2.60
2018-05-27T14:26:23.826Z,3.05
2018-05-27T14:28:52.117Z,3.60
2018-05-27T14:31:19.678Z,4.50
2018-05-27T14:33:47.973Z,1.90
2018-05-27T14:36:15.517Z,2.37
2018-05-27T14:38:43.062Z,2.53
2018-05-27T14:41:11.420Z,3.42
2018-05-27T14:43:38.930Z,2.12
2018-05-27T14:46:06.501Z,2.33
2018-05-27T14:48:34.782Z,2.20
2018-05-27T14:51:02.326Z,3.78
2018-05-27T14:53:29.860Z,3.35
2018-05-27T14:55:57.389Z,2.33
2018-05-27T14:58:25.699Z,2.40
2018-05-27T15:00:53.251Z,3.37
2018-05-27T15:03:20.814Z,3.65
2018-05-27T15:05:49.150Z,3.92
2018-05-27T15:08:16.686Z,2.50
2018-05-27T15:10:44.201Z,2.58
2018-05-27T15:13:12.483Z,2.62
2018-05-27T15:15:40.801Z,2.37
2018-05-27T15:18:08.312Z,2.20
2018-05-27T15:20:36.620Z,7.22
2018-05-27T15:23:04.961Z,2.10
2018-05-27T15:25:32.509Z,2.70
2018-05-27T15:28:00.037Z,3.03
2018-05-27T15:30:28.340Z,2.00
2018-05-27T15:32:55.843Z,3.55
2018-05-27T15:35:23.346Z,2.00
2018-05-27T15:37:51.646Z,2.20
2018-05-27T15:40:19.181Z,2.15
2018-05-27T15:42:47.493Z,2.30
2018-05-27T15:45:15.022Z,2.28
2018-05-27T15:47:42.541Z,2.72
2018-05-27T15:50:10.069Z,2.37
2018-05-27T15:52:38.369Z,2.33
2018-05-27T15:55:05.884Z,2.37
2018-05-27T15:57:33.494Z,2.55
2018-05-27T16:00:01.041Z,2.25
2018-05-27T16:02:29.330Z,2.60
2018-05-27T16:04:56.841Z,2.90
2018-05-27T16:07:24.691Z,2.30
2018-05-27T16:09:52.245Z,2.20
2018-05-27T16:12:19.758Z,2.25
2018-05-27T16:14:47.286Z,2.00
2018-05-27T16:17:14.793Z,2.10
2018-05-27T16:19:42.301Z,2.58
2018-05-27T16:22:09.837Z,2.40
2018-05-27T16:24:37.350Z,4.30
2018-05-27T16:27:04.875Z,2.35
2018-05-27T16:29:32.415Z,2.90
2018-05-27T16:31:59.933Z,2.95
2018-05-27T16:34:27.462Z,2.70
2018-05-27T16:36:55.773Z,2.30
2018-05-27T16:39:23.287Z,2.20
2018-05-27T16:41:50.815Z,2.40
2018-05-27T16:44:18.346Z,2.67
2018-05-27T16:46:45.861Z,2.60
2018-05-27T16:49:13.370Z,2.50
2018-05-27T16:51:40.904Z,2.78
2018-05-27T16:54:08.410Z,3.70
2018-05-27T16:56:35.915Z,2.25
2018-05-27T16:59:03.454Z,2.67
2018-05-27T17:01:30.985Z,3.17
2018-05-27T17:03:59.262Z,2.97
2018-05-27T17:06:27.706Z,2.17
2018-05-27T17:08:55.351Z,2.70
2018-05-27T17:11:22.871Z,2.30
2018-05-27T17:13:51.182Z,3.15
2018-05-27T17:16:18.694Z,2.62
2018-05-27T17:18:46.206Z,2.80
2018-05-27T17:21:13.733Z,3.17
2018-05-27T17:23:41.257Z,3.28
2018-05-27T17:26:08.783Z,3.22
2018-05-27T17:28:37.098Z,3.37
2018-05-27T17:31:04.618Z,3.33
2018-05-27T17:33:32.889Z,3.10
2018-05-27T17:36:00.466Z,6.20
2018-05-27T17:38:27.961Z,4.12
2018-05-27T17:40:55.482Z,3.00
2018-05-27T17:43:23.784Z,3.70
2018-05-27T17:45:53.113Z,2.97
2018-05-27T17:48:20.634Z,3.92
2018-05-27T17:50:48.189Z,3.72
2018-05-27T17:53:15.789Z,3.67
2018-05-27T17:55:43.338Z,3.10
2018-05-27T17:58:10.883Z,3.30
2018-05-27T18:00:38.422Z,3.35
2018-05-27T18:03:05.963Z,3.58
2018-05-27T18:05:33.528Z,3.58
2018-05-27T18:08:01.048Z,3.28
2018-05-27T18:10:28.737Z,3.80
2018-05-27T18:12:57.053Z,4.10
2018-05-27T18:15:24.565Z,4.82
2018-05-27T18:17:52.073Z,3.55
2018-05-27T18:20:19.602Z,3.47
2018-05-27T18:22:47.909Z,3.80
2018-05-27T18:25:15.426Z,3.58
2018-05-27T18:27:43.261Z,3.90
2018-05-27T18:30:10.789Z,4.15
2018-05-27T18:32:39.060Z,3.97
2018-05-27T18:35:07.372Z,3.70
2018-05-27T18:37:34.956Z,4.37
2018-05-27T18:40:02.487Z,3.87
2018-05-27T18:42:30.791Z,3.72
2018-05-27T18:44:58.307Z,3.50
2018-05-27T18:47:25.913Z,4.25
2018-05-27T18:49:54.232Z,3.42
2018-05-27T18:52:21.740Z,3.97
2018-05-27T18:54:50.019Z,3.83
2018-05-27T18:57:18.325Z,5.03
2018-05-27T18:59:45.855Z,6.90
2018-05-27T19:02:14.163Z,3.53
2018-05-27T19:04:41.717Z,4.28
2018-05-27T19:07:09.242Z,3.95
2018-05-27T19:09:37.523Z,4.47
2018-05-27T19:12:05.245Z,4.80
2018-05-27T19:14:33.525Z,3.58
2018-05-27T19:17:01.049Z,3.45
2018-05-27T19:19:28.594Z,3.92
2018-05-27T19:21:56.105Z,4.30
2018-05-27T19:24:23.626Z,3.00
2018-05-27T19:26:51.174Z,4.65
2018-05-27T19:29:18.677Z,3.33
2018-05-27T19:31:46.192Z,3.92
2018-05-27T19:34:13.739Z,4.35
2018-05-27T19:36:41.250Z,4.45
2018-05-27T19:39:08.760Z,3.47
2018-05-27T19:41:36.297Z,4.37
2018-05-27T19:44:04.586Z,3.37
2018-05-27T19:46:32.889Z,3.47
2018-05-27T19:49:00.464Z,4.55
2018-05-27T19:51:28.004Z,4.10
2018-05-27T19:53:56.278Z,4.80
2018-05-27T19:56:24.590Z,4.10
2018-05-27T19:58:52.873Z,4.10
2018-05-27T20:01:20.389Z,4.78
2018-05-27T20:03:47.968Z,3.40
2018-05-27T20:06:16.301Z,4.68
2018-05-27T20:08:43.819Z,3.47
2018-05-27T20:11:12.126Z,2.92
2018-05-27T20:13:40.450Z,3.72
2018-05-27T20:16:07.962Z,2.97
2018-05-27T20:18:35.501Z,3.85
2018-05-27T20:21:03.793Z,3.45
2018-05-27T20:23:32.102Z,5.57
2018-05-27T20:25:59.644Z,3.60
2018-05-27T20:28:27.941Z,3.42
2018-05-27T20:30:55.458Z,4.82
2018-05-27T20:33:24.503Z,3.28
2018-05-27T20:35:52.026Z,3.22
2018-05-27T20:38:19.557Z,4.70
2018-05-27T20:40:47.864Z,4.43
2018-05-27T20:43:15.378Z,3.83
2018-05-27T20:45:42.944Z,6.72
2018-05-27T20:48:10.509Z,3.83
2018-05-27T20:50:38.034Z,3.72
2018-05-27T20:53:06.369Z,3.53
2018-05-27T20:55:33.897Z,3.60
2018-05-27T20:58:02.200Z,3.95
2018-05-27T21:00:30.487Z,3.45
2018-05-27T21:02:58.030Z,3.50
2018-05-27T21:05:26.308Z,3.37
2018-05-27T21:07:54.596Z,3.70
2018-05-27T21:10:24.633Z,5.37
2018-05-27T21:12:52.148Z,5.30
2018-05-27T21:15:20.637Z,4.80
2018-05-27T21:17:48.196Z,3.53
2018-05-27T21:20:15.701Z,6.32
2018-05-27T21:22:43.211Z,3.83
2018-05-27T21:25:10.751Z,5.90
2018-05-27T21:27:38.282Z,6.45
2018-05-27T21:30:05.817Z,5.97
2018-05-27T21:32:33.394Z,3.60
2018-05-27T21:35:01.709Z,4.65
2018-05-27T21:37:29.245Z,4.65
2018-05-27T21:39:57.561Z,4.53
2018-05-27T21:42:25.130Z,4.47
2018-05-27T21:44:52.685Z,4.32
2018-05-27T21:47:20.230Z,4.00
2018-05-27T21:49:48.522Z,4.82
2018-05-27T21:52:16.838Z,3.70
2018-05-27T21:54:44.481Z,3.90
2018-05-27T21:57:11.999Z,5.05
2018-05-27T21:59:39.514Z,3.58
2018-05-27T22:02:07.072Z,5.55
2018-05-27T22:04:34.582Z,4.45
2018-05-27T22:07:02.102Z,5.68
2018-05-27T22:09:29.641Z,3.70
2018-05-27T22:11:57.928Z,4.10
2018-05-27T22:14:25.442Z,3.70
2018-05-27T22:16:53.076Z,4.50
2018-05-27T22:19:20.603Z,4.62
2018-05-27T22:21:48.124Z,9.57
2018-05-27T22:24:15.669Z,5.57
2018-05-27T22:26:43.178Z,5.55
2018-05-27T22:29:10.695Z,5.37
2018-05-27T22:31:38.247Z,6.15
2018-05-27T22:34:05.773Z,5.90
2018-05-27T22:36:33.302Z,6.12
2018-05-27T22:39:00.828Z,6.03
2018-05-27T22:41:29.195Z,6.53
2018-05-27T22:43:57.442Z,7.03
2018-05-27T22:46:24.975Z,7.00
2018-05-27T22:48:52.505Z,7.53
2018-05-27T22:51:20.114Z,6.82
2018-05-27T22:53:47.674Z,6.80
2018-05-27T22:56:15.194Z,6.28
2018-05-27T22:58:43.540Z,7.60
2018-05-27T23:01:11.191Z,7.10
2018-05-27T23:03:38.745Z,6.28
2018-05-27T23:06:06.301Z,7.60
2018-05-27T23:08:34.597Z,6.78
2018-05-27T23:11:02.138Z,6.47
2018-05-27T23:13:30.413Z,7.20
2018-05-27T23:15:58.720Z,6.45
2018-05-27T23:18:27.162Z,7.80
2018-05-27T23:20:54.690Z,7.72
2018-05-27T23:23:23.137Z,7.20
2018-05-27T23:25:51.413Z,7.32
2018-05-27T23:28:19.687Z,7.68
2018-05-27T23:30:47.234Z,7.18
2018-05-27T23:33:14.744Z,7.50
2018-05-27T23:35:42.261Z,8.10
2018-05-27T23:38:09.893Z,7.90
2018-05-27T23:40:38.183Z,8.48
2018-05-27T23:43:05.699Z,7.20
2018-05-27T23:45:34.121Z,8.18
2018-05-27T23:48:01.647Z,7.28
2018-05-27T23:50:29.930Z,7.37
2018-05-27T23:52:58.546Z,7.03
2018-05-27T23:55:26.837Z,7.10
2018-05-27T23:57:54.354Z,7.25
